Time;durP1;ratioP1;P1;durP2;ratioP2;P2;SDS_P1;SDS_P2;PMS_P1;PMS_P2;Temp;Humidity;BMP_temperature;BMP_pressure;BME280_temperature;BME280_humidity;BME280_pressure;Samples;Min_cycle;Max_cycle;Signal;HPM_P1;HPM_P2
2022/10/04 00:01:12;;;;;;;16.75;7.47;;;12.90;99.90;;;;;;5091097;28;20324;-77
2022/10/04 00:03:47;;;;;;;17.05;7.35;;;12.90;99.90;;;;;;5102434;28;20034;-77
2022/10/04 00:06:14;;;;;;;;;;;12.90;99.90;;;;;;5091307;28;20024;-77
2022/10/04 00:08:42;;;;;;;14.57;7.15;;;12.80;99.90;;;;;;5104597;28;19908;-77
2022/10/04 00:11:25;;;;;;;21.02;7.10;;;12.80;99.90;;;;;;5110901;28;20469;-77
2022/10/04 00:13:59;;;;;;;14.35;7.10;;;12.80;99.90;;;;;;5098731;28;20471;-77
2022/10/04 00:16:35;;;;;;;27.70;8.18;;;12.80;99.90;;;;;;5095136;28;20027;-77
2022/10/04 00:19:41;;;;;;;22.25;7.75;;;12.80;99.90;;;;;;5090713;28;20085;-77
2022/10/04 00:22:09;;;;;;;16.45;8.02;;;12.80;99.90;;;;;;5099050;28;20036;-77
2022/10/04 00:24:36;;;;;;;23.63;7.95;;;12.80;99.90;;;;;;5110803;28;20015;-77
2022/10/04 00:27:22;;;;;;;26.25;8.73;;;12.80;99.90;;;;;;5110331;28;20095;-77
2022/10/04 00:30:02;;;;;;;21.23;8.73;;;12.80;99.90;;;;;;5110132;28;20020;-77
2022/10/04 00:32:40;;;;;;;15.57;8.23;;;12.80;99.90;;;;;;5079177;28;20552;-77
2022/10/04 00:35:26;;;;;;;23.40;8.57;;;12.80;99.90;;;;;;5110435;28;20019;-77
2022/10/04 00:38:05;;;;;;;24.00;8.88;;;12.80;99.90;;;;;;5091966;28;20031;-76
2022/10/04 00:40:45;;;;;;;17.55;8.32;;;12.80;99.90;;;;;;5110344;28;20042;-78
2022/10/04 00:43:24;;;;;;;20.15;8.02;;;12.70;99.90;;;;;;5110663;28;20016;-77
2022/10/04 00:46:00;;;;;;;22.00;8.45;;;12.70;99.90;;;;;;5072472;28;20165;-77
2022/10/04 00:48:32;;;;;;;16.00;8.38;;;12.70;99.90;;;;;;5102858;28;20129;-77
2022/10/04 00:51:18;;;;;;;13.57;7.82;;;12.70;99.90;;;;;;5104608;28;20028;-77
2022/10/04 00:54:02;;;;;;;20.13;8.02;;;12.70;99.90;;;;;;5103745;28;20495;-77
2022/10/04 00:56:35;;;;;;;18.35;8.48;;;12.70;99.90;;;;;;5110552;28;20028;-77
2022/10/04 00:59:38;;;;;;;25.02;9.40;;;12.60;99.90;;;;;;5109662;28;20110;-77
2022/10/04 01:02:19;;;;;;;17.50;8.27;;;12.60;99.90;;;;;;5098002;28;20052;-77
2022/10/04 01:05:01;;;;;;;18.00;8.73;;;12.60;99.90;;;;;;5097198;28;20015;-77
2022/10/04 01:07:43;;;;;;;18.70;7.97;;;12.60;99.90;;;;;;5095194;28;20111;-77
2022/10/04 01:10:38;;;;;;;20.08;8.57;;;12.50;99.90;;;;;;5114458;28;20605;-77
2022/10/04 01:13:13;;;;;;;20.00;8.80;;;12.50;99.90;;;;;;5103229;28;20023;-77
2022/10/04 01:15:41;;;;;;;19.85;9.57;;;12.40;99.90;;;;;;5103385;28;20629;-77
2022/10/04 01:18:09;;;;;;;23.33;9.65;;;12.40;99.90;;;;;;5110478;28;20099;-77
2022/10/04 01:20:48;;;;;;;20.50;9.70;;;12.40;99.90;;;;;;5114006;28;20022;-77
2022/10/04 01:23:37;;;;;;;21.02;9.48;;;12.40;99.90;;;;;;5103799;28;20023;-77
2022/10/04 01:26:25;;;;;;;17.75;10.05;;;12.40;99.90;;;;;;5113621;28;20032;-77
2022/10/04 01:28:54;;;;;;;19.90;9.75;;;12.30;99.90;;;;;;5098838;28;20495;-77
2022/10/04 01:31:20;;;;;;;20.60;10.20;;;12.30;99.90;;;;;;5112177;28;20149;-77
2022/10/04 01:33:46;;;;;;;22.35;10.82;;;12.30;99.90;;;;;;5113380;28;20037;-77
2022/10/04 01:36:12;;;;;;;21.08;10.95;;;12.30;99.90;;;;;;5114090;28;20012;-76
2022/10/04 01:38:38;;;;;;;25.25;11.40;;;12.30;99.90;;;;;;5111449;28;20030;-77
2022/10/04 01:41:06;;;;;;;26.90;11.00;;;12.20;99.90;;;;;;5105229;28;20027;-77
2022/10/04 01:43:37;;;;;;;22.83;10.60;;;12.20;99.90;;;;;;5084748;28;20032;-77
2022/10/04 01:46:12;;;;;;;26.65;11.30;;;12.20;99.90;;;;;;5112915;28;20050;-77
2022/10/04 01:48:42;;;;;;;23.35;11.60;;;12.20;99.90;;;;;;5110961;28;20031;-77
2022/10/04 01:51:24;;;;;;;22.73;11.32;;;12.20;99.90;;;;;;5106862;28;20051;-77
2022/10/04 01:53:58;;;;;;;26.40;11.70;;;12.20;99.90;;;;;;5111141;28;20516;-77
2022/10/04 01:56:30;;;;;;;25.90;11.73;;;12.20;99.90;;;;;;5113636;28;20031;-77
2022/10/04 01:59:03;;;;;;;22.52;11.20;;;12.10;99.90;;;;;;5112661;28;20287;-77
2022/10/04 02:01:39;;;;;;;17.55;10.88;;;12.20;99.90;;;;;;5111559;28;20106;-77
2022/10/04 02:04:20;;;;;;;19.58;10.90;;;12.10;99.90;;;;;;5077240;28;20547;-77
2022/10/04 02:06:53;;;;;;;23.92;12.25;;;12.10;99.90;;;;;;5085972;28;20372;-77
2022/10/04 02:09:26;;;;;;;19.95;11.50;;;12.10;99.90;;;;;;5098599;28;20372;-77
2022/10/04 02:11:54;;;;;;;21.35;11.75;;;12.10;99.90;;;;;;5111416;28;20023;-77
2022/10/04 02:14:23;;;;;;;22.50;12.27;;;12.10;99.90;;;;;;5112690;28;20356;-77
2022/10/04 02:16:51;;;;;;;26.40;12.20;;;12.10;99.90;;;;;;5093574;28;20016;-77
2022/10/04 02:19:18;;;;;;;25.83;12.20;;;12.10;99.90;;;;;;5101741;28;20020;-77
2022/10/04 02:21:45;;;;;;;25.33;12.63;;;12.00;99.90;;;;;;5095929;28;20020;-77
2022/10/04 02:24:12;;;;;;;27.52;13.63;;;12.10;99.90;;;;;;5093757;28;20031;-76
2022/10/04 02:26:37;;;;;;;27.88;14.63;;;12.00;99.90;;;;;;5098349;28;20024;-77
2022/10/04 02:29:03;;;;;;;29.02;15.27;;;12.00;99.90;;;;;;5112358;28;20437;-77
2022/10/04 02:34:16;;;;;;;26.02;15.50;;;12.00;99.90;;;;;;5101618;28;20081;-77
2022/10/04 02:36:42;;;;;;;26.45;14.80;;;12.00;99.90;;;;;;5095821;28;20053;-76
2022/10/04 02:39:14;;;;;;;32.00;15.18;;;12.00;99.90;;;;;;5112440;28;20015;-76
2022/10/04 02:41:55;;;;;;;32.58;15.93;;;11.90;99.90;;;;;;5097914;28;20077;-76
2022/10/04 02:44:25;;;;;;;26.67;15.02;;;12.00;99.90;;;;;;5104156;28;20503;-76
2022/10/04 02:47:08;;;;;;;25.67;14.45;;;11.90;99.90;;;;;;5106811;28;20055;-76
2022/10/04 02:49:45;;;;;;;29.27;15.63;;;11.90;99.90;;;;;;5101327;28;20019;-76
2022/10/04 02:52:23;;;;;;;27.85;14.95;;;11.90;99.90;;;;;;5096463;28;20031;-76
2022/10/04 02:54:59;;;;;;;28.67;16.05;;;11.80;99.90;;;;;;5105887;28;20183;-76
2022/10/04 02:57:27;;;;;;;29.17;16.08;;;11.90;99.90;;;;;;5085273;28;20368;-76
2022/10/04 03:00:13;;;;;;;23.48;14.75;;;11.90;99.90;;;;;;5101630;28;20103;-75
2022/10/04 03:02:39;;;;;;;26.95;15.98;;;11.80;99.90;;;;;;5095445;28;20034;-76
2022/10/04 03:05:09;;;;;;;30.42;16.52;;;11.80;99.90;;;;;;5111800;28;20020;-76
2022/10/04 03:07:37;;;;;;;31.45;17.42;;;11.80;99.90;;;;;;5108301;28;20016;-76
2022/10/04 03:10:11;;;;;;;27.20;17.27;;;11.70;99.90;;;;;;5111295;28;20411;-75
2022/10/04 03:12:38;;;;;;;35.70;18.10;;;11.70;99.90;;;;;;5112002;28;20104;-76
2022/10/04 03:15:11;;;;;;;33.10;18.17;;;11.70;99.90;;;;;;5099585;28;20477;-76
2022/10/04 03:17:41;;;;;;;34.22;18.45;;;11.70;99.90;;;;;;5103294;28;20536;-76
2022/10/04 03:20:10;;;;;;;33.70;19.08;;;11.70;99.90;;;;;;5108918;28;20479;-76
2022/10/04 03:22:35;;;;;;;33.65;18.25;;;11.70;99.90;;;;;;5110468;28;20211;-76
2022/10/04 03:25:01;;;;;;;30.90;19.55;;;11.70;99.90;;;;;;5103363;28;20387;-75
2022/10/04 03:27:35;;;;;;;36.50;19.63;;;11.70;99.90;;;;;;5104061;28;20440;-75
2022/10/04 03:30:00;;;;;;;37.97;18.50;;;11.70;99.90;;;;;;5091024;28;20285;-75
2022/10/04 03:32:29;;;;;;;35.05;18.40;;;11.70;99.90;;;;;;5105276;28;20107;-75
2022/10/04 03:34:57;;;;;;;43.22;19.05;;;11.70;99.90;;;;;;5085607;28;20024;-76
2022/10/04 03:37:25;;;;;;;30.02;16.98;;;11.70;99.90;;;;;;5104902;28;20070;-76
2022/10/04 03:39:54;;;;;;;34.15;17.98;;;11.70;99.90;;;;;;5110586;28;20019;-76
2022/10/04 03:42:21;;;;;;;28.05;17.58;;;11.70;99.90;;;;;;5111234;28;20046;-76
2022/10/04 03:44:50;;;;;;;32.20;16.85;;;11.70;99.90;;;;;;5110716;28;20367;-76
2022/10/04 03:47:24;;;;;;;30.00;17.88;;;11.70;99.90;;;;;;5101066;28;20032;-75
2022/10/04 03:49:51;;;;;;;33.60;18.23;;;11.60;99.90;;;;;;5110034;28;20101;-76
2022/10/04 03:52:26;;;;;;;32.35;17.60;;;11.60;99.90;;;;;;5102132;28;20028;-75
2022/10/04 03:54:55;;;;;;;33.63;17.77;;;11.60;99.90;;;;;;5096183;28;20012;-76
2022/10/04 03:57:22;;;;;;;35.55;17.83;;;11.60;99.90;;;;;;5110874;28;20032;-75
2022/10/04 03:59:48;;;;;;;34.28;18.00;;;11.60;99.90;;;;;;5109003;28;20028;-76
2022/10/04 04:02:26;;;;;;;39.35;18.75;;;11.60;99.90;;;;;;5101105;28;20476;-75
2022/10/04 04:05:08;;;;;;;29.20;17.70;;;11.60;99.90;;;;;;5077463;28;20028;-76
2022/10/04 04:07:49;;;;;;;39.13;18.75;;;11.60;99.90;;;;;;5110928;28;20024;-75
2022/10/04 04:10:30;;;;;;;32.22;17.20;;;11.60;99.90;;;;;;5091710;28;20499;-76
2022/10/04 04:13:02;;;;;;;39.28;18.65;;;11.50;99.90;;;;;;5107855;28;20081;-75
2022/10/04 04:15:30;;;;;;;33.42;17.00;;;11.50;99.90;;;;;;5100100;28;20034;-76
2022/10/04 04:18:01;;;;;;;33.75;17.42;;;11.50;99.90;;;;;;5091202;28;20111;-76
2022/10/04 04:20:35;;;;;;;30.30;16.92;;;11.50;99.90;;;;;;5092200;28;20080;-76
2022/10/04 04:23:22;;;;;;;33.00;16.33;;;11.60;99.90;;;;;;5095076;28;20039;-75
2022/10/04 04:25:53;;;;;;;33.45;16.77;;;11.60;99.90;;;;;;5104533;28;20024;-76
2022/10/04 04:28:35;;;;;;;33.28;16.77;;;11.60;99.90;;;;;;5110706;28;20410;-76
2022/10/04 04:31:22;;;;;;;29.33;15.68;;;11.60;99.90;;;;;;5095968;28;20028;-76
2022/10/04 04:34:00;;;;;;;29.70;16.73;;;11.60;99.90;;;;;;5110999;28;20453;-75
2022/10/04 04:36:39;;;;;;;32.30;17.23;;;11.50;99.90;;;;;;5095471;28;20031;-75
2022/10/04 04:39:38;;;;;;;33.55;16.90;;;11.60;99.90;;;;;;5110558;28;20023;-75
2022/10/04 04:42:09;;;;;;;36.85;17.80;;;11.60;99.90;;;;;;5081420;28;20035;-75
2022/10/04 04:44:56;;;;;;;37.67;17.48;;;11.50;99.90;;;;;;5114300;28;20046;-75
2022/10/04 04:47:35;;;;;;;31.48;16.58;;;11.50;99.90;;;;;;5070841;28;20109;-76
2022/10/04 04:50:11;;;;;;;29.90;17.05;;;11.50;99.90;;;;;;5069696;28;20119;-75
2022/10/04 04:52:37;;;;;;;35.58;17.13;;;11.50;99.90;;;;;;5064267;28;20032;-76
2022/10/04 04:55:05;;;;;;;36.83;16.50;;;11.50;99.90;;;;;;5053187;28;20032;-75
2022/10/04 04:57:32;;;;;;;34.08;17.05;;;11.50;99.90;;;;;;5054965;28;20035;-75
2022/10/04 05:00:00;;;;;;;33.72;17.88;;;11.40;99.90;;;;;;5055339;28;20029;-75
2022/10/04 05:02:35;;;;;;;34.15;17.63;;;11.50;99.90;;;;;;5055661;28;20028;-75
2022/10/04 05:05:14;;;;;;;36.63;16.95;;;11.50;99.90;;;;;;5061337;28;20504;-75
2022/10/04 05:07:42;;;;;;;30.23;17.08;;;11.50;99.90;;;;;;5053390;28;20037;-75
2022/10/04 05:10:32;;;;;;;34.30;17.42;;;11.50;99.90;;;;;;5063774;28;20370;-77
2022/10/04 05:13:03;;;;;;;34.42;17.42;;;11.50;99.90;;;;;;5055731;28;20032;-74
2022/10/04 05:15:35;;;;;;;31.63;17.67;;;11.40;99.90;;;;;;5051785;28;20013;-74
2022/10/04 05:18:13;;;;;;;33.00;17.15;;;11.40;99.90;;;;;;5052414;28;20662;-74
2022/10/04 05:20:42;;;;;;;30.05;16.23;;;11.40;99.90;;;;;;5061806;28;20056;-74
2022/10/04 05:23:11;;;;;;;29.48;16.70;;;11.40;99.90;;;;;;5066272;28;20039;-74
2022/10/04 05:25:37;;;;;;;37.20;18.02;;;11.40;99.90;;;;;;5071854;28;20044;-74
2022/10/04 05:28:04;;;;;;;31.08;17.83;;;11.40;99.90;;;;;;5064803;28;20033;-74
2022/10/04 05:30:47;;;;;;;36.35;17.10;;;11.40;99.90;;;;;;5074242;28;20020;-75
2022/10/04 05:33:23;;;;;;;38.45;18.00;;;11.40;99.90;;;;;;5065727;28;20032;-78
2022/10/04 05:36:10;;;;;;;31.80;17.20;;;11.40;99.90;;;;;;5069394;28;20025;-75
2022/10/04 05:38:49;;;;;;;29.77;16.48;;;11.30;99.90;;;;;;5058787;28;20115;-76
2022/10/04 05:41:27;;;;;;;34.78;16.13;;;11.30;99.90;;;;;;5067172;28;20028;-76
2022/10/04 05:43:53;;;;;;;35.47;17.58;;;11.30;99.90;;;;;;5055053;28;20017;-74
2022/10/04 05:46:24;;;;;;;33.70;16.65;;;11.30;99.90;;;;;;5087338;28;20130;-72
2022/10/04 05:48:57;;;;;;;31.45;17.33;;;11.30;99.90;;;;;;5112817;28;20057;-75
2022/10/04 05:51:32;;;;;;;36.28;18.05;;;11.20;99.90;;;;;;5106881;28;20031;-74
2022/10/04 05:54:00;;;;;;;35.22;18.00;;;11.20;99.90;;;;;;5112162;28;20015;-73
2022/10/04 05:56:41;;;;;;;33.15;17.30;;;11.20;99.90;;;;;;5102444;28;20092;-75
2022/10/04 05:59:21;;;;;;;28.90;17.10;;;11.20;99.90;;;;;;5093306;28;20069;-75
2022/10/04 06:02:24;;;;;;;33.40;18.55;;;11.20;99.90;;;;;;5108734;28;20043;-73
2022/10/04 06:05:11;;;;;;;41.60;18.58;;;11.10;99.90;;;;;;5102966;28;20038;-74
2022/10/04 06:08:10;;;;;;;32.75;16.90;;;11.10;99.90;;;;;;5093867;28;20576;-73
2022/10/04 06:10:54;;;;;;;34.28;19.20;;;11.10;99.90;;;;;;5098188;28;20466;-73
2022/10/04 06:13:50;;;;;;;40.22;20.42;;;11.10;99.90;;;;;;5088714;27;20469;-74
2022/10/04 06:16:34;;;;;;;38.30;19.23;;;11.10;99.90;;;;;;5102803;28;20066;-73
2022/10/04 06:19:15;;;;;;;33.33;18.23;;;11.10;99.90;;;;;;5093658;28;20054;-73
2022/10/04 06:22:15;;;;;;;33.97;18.42;;;11.10;99.90;;;;;;5092060;28;20484;-73
2022/10/04 06:24:47;;;;;;;32.22;17.88;;;11.10;99.90;;;;;;5092982;28;20024;-74
2022/10/04 06:27:25;;;;;;;37.70;19.92;;;11.10;99.90;;;;;;5104518;28;20113;-73
2022/10/04 06:30:00;;;;;;;40.17;19.33;;;11.10;99.90;;;;;;5106756;28;20035;-73
2022/10/04 06:32:28;;;;;;;;;;;11.10;99.90;;;;;;5105665;28;20406;-74
2022/10/04 06:34:57;;;;;;;36.78;19.55;;;11.10;99.90;;;;;;5112112;28;19904;-73
2022/10/04 06:37:44;;;;;;;43.95;20.55;;;11.10;99.90;;;;;;5112753;28;20020;-73
2022/10/04 06:40:37;;;;;;;41.00;21.15;;;11.10;99.90;;;;;;5098215;28;20034;-73
2022/10/04 06:43:34;;;;;;;37.47;20.42;;;11.10;99.90;;;;;;5097999;28;20072;-73
2022/10/04 06:46:39;;;;;;;41.38;20.50;;;11.10;99.90;;;;;;5112221;28;20430;-74
2022/10/04 06:49:04;;;;;;;41.67;21.00;;;11.10;99.90;;;;;;5094391;28;20024;-73
2022/10/04 06:51:49;;;;;;;38.00;20.33;;;11.10;99.90;;;;;;5107226;28;20042;-73
2022/10/04 06:54:43;;;;;;;46.13;20.98;;;11.10;99.90;;;;;;5111901;28;20048;-73
2022/10/04 06:57:42;;;;;;;47.20;21.02;;;11.20;99.90;;;;;;5104953;28;20027;-73
2022/10/04 07:00:13;;;;;;;43.00;20.65;;;11.20;99.90;;;;;;5085714;28;20031;-73
2022/10/04 07:02:55;;;;;;;43.35;21.05;;;11.20;99.90;;;;;;5100084;28;20096;-74
2022/10/04 07:05:54;;;;;;;42.40;20.55;;;11.30;99.90;;;;;;5106999;28;20554;-73
2022/10/04 07:08:40;;;;;;;38.15;21.27;;;11.30;99.90;;;;;;5107288;28;20100;-73
2022/10/04 07:11:26;;;;;;;37.00;20.02;;;11.40;99.90;;;;;;5111799;28;20399;-74
2022/10/04 07:14:24;;;;;;;43.80;21.02;;;11.40;99.90;;;;;;5111793;28;20016;-73
2022/10/04 07:16:59;;;;;;;37.83;20.02;;;11.50;99.90;;;;;;5110887;28;20118;-73
2022/10/04 07:19:33;;;;;;;;;;;11.60;99.90;;;;;;5103511;28;20019;-73
2022/10/04 07:22:11;;;;;;;42.80;20.58;;;11.60;99.90;;;;;;5106921;28;20218;-72
2022/10/04 07:24:55;;;;;;;33.58;20.38;;;11.70;99.90;;;;;;5105033;28;20031;-72
2022/10/04 07:27:44;;;;;;;39.40;20.08;;;11.70;99.90;;;;;;5098920;27;20059;-73
2022/10/04 07:30:19;;;;;;;40.50;20.48;;;11.80;99.90;;;;;;5061805;28;20119;-74
2022/10/04 07:32:47;;;;;;;37.85;20.05;;;11.80;99.90;;;;;;5108125;27;20049;-74
2022/10/04 07:35:32;;;;;;;38.00;19.88;;;11.90;99.90;;;;;;5098800;28;20028;-73
2022/10/04 07:38:08;;;;;;;35.45;20.20;;;11.90;99.90;;;;;;5100025;28;20104;-74
2022/10/04 07:40:42;;;;;;;39.42;19.52;;;12.00;99.90;;;;;;5100344;28;20016;-73
2022/10/04 07:43:26;;;;;;;36.42;19.98;;;12.00;99.90;;;;;;5079989;28;20428;-75
2022/10/04 07:46:20;;;;;;;33.28;19.60;;;12.00;99.90;;;;;;5102101;28;20491;-73
2022/10/04 07:48:49;;;;;;;39.60;18.70;;;12.10;99.90;;;;;;5054055;28;20509;-73
2022/10/04 07:51:30;;;;;;;34.53;19.52;;;12.20;99.90;;;;;;5102695;28;20027;-74
2022/10/04 07:54:20;;;;;;;33.88;18.75;;;12.20;99.90;;;;;;5103097;28;20020;-73
2022/10/04 07:56:58;;;;;;;36.75;19.45;;;12.30;99.90;;;;;;5110483;28;20020;-73
2022/10/04 07:59:55;;;;;;;34.58;19.25;;;12.30;99.90;;;;;;5098934;28;20031;-73
2022/10/04 08:02:42;;;;;;;32.42;18.98;;;12.30;99.90;;;;;;5102580;28;20028;-74
2022/10/04 08:05:28;;;;;;;36.90;19.02;;;12.40;99.90;;;;;;5107314;28;20012;-73
2022/10/04 08:08:13;;;;;;;35.47;19.05;;;12.40;99.90;;;;;;5111030;28;20517;-74
2022/10/04 08:11:30;;;;;;;35.85;19.15;;;12.40;99.90;;;;;;5085954;28;20024;-74
2022/10/04 08:14:16;;;;;;;36.92;19.15;;;12.50;99.90;;;;;;5045779;28;20041;-73
2022/10/04 08:17:11;;;;;;;36.20;19.35;;;12.60;99.90;;;;;;5046914;28;20056;-73
2022/10/04 08:19:37;;;;;;;31.95;18.50;;;12.70;99.90;;;;;;5047848;28;20388;-73
2022/10/04 08:22:25;;;;;;;34.95;18.58;;;12.80;99.90;;;;;;5046692;28;20124;-73
2022/10/04 08:25:10;;;;;;;32.88;18.55;;;13.00;99.90;;;;;;5050754;28;20521;-74
2022/10/04 08:31:20;;;;;;;28.73;17.88;;;13.30;99.90;;;;;;5036827;28;20673;-75
2022/10/04 08:34:07;;;;;;;29.23;17.83;;;13.40;99.90;;;;;;5037848;28;20061;-74
2022/10/04 08:36:45;;;;;;;32.05;17.17;;;13.50;99.90;;;;;;5044098;28;20025;-75
2022/10/04 08:40:13;;;;;;;29.48;16.13;;;13.50;99.90;;;;;;5048201;28;20025;-74
2022/10/04 08:42:57;;;;;;;30.10;16.42;;;13.60;99.90;;;;;;4988037;28;20048;-74
2022/10/04 08:45:36;;;;;;;28.13;15.13;;;13.60;99.90;;;;;;4975505;28;20157;-74
2022/10/04 08:48:23;;;;;;;31.45;15.43;;;13.60;99.90;;;;;;4981957;28;20087;-75
2022/10/04 08:51:03;;;;;;;28.80;14.77;;;13.70;99.90;;;;;;5020874;28;20029;-74
2022/10/04 08:53:47;;;;;;;26.83;14.35;;;13.70;99.90;;;;;;5028737;28;20065;-75
2022/10/04 08:56:34;;;;;;;24.88;14.07;;;13.90;99.90;;;;;;5027235;28;20116;-74
2022/10/04 08:59:14;;;;;;;26.48;13.95;;;14.00;99.90;;;;;;5021731;28;20036;-75
2022/10/04 09:02:27;;;;;;;25.88;14.23;;;14.10;99.90;;;;;;5031252;28;20033;-74
2022/10/04 09:04:59;;;;;;;23.90;12.93;;;14.10;99.90;;;;;;5026439;28;20650;-74
2022/10/04 09:07:30;;;;;;;22.52;12.60;;;14.20;99.90;;;;;;5023672;28;20041;-74
2022/10/04 09:09:55;;;;;;;23.98;12.75;;;14.40;99.90;;;;;;5023770;28;20052;-72
2022/10/04 09:12:49;;;;;;;25.92;12.82;;;14.40;99.90;;;;;;5028214;28;20038;-75
2022/10/04 09:15:42;;;;;;;24.83;12.55;;;14.60;99.90;;;;;;5026991;28;20033;-74
2022/10/04 09:18:11;;;;;;;21.88;12.43;;;14.70;99.90;;;;;;5067956;28;20032;-74
2022/10/04 09:20:57;;;;;;;22.25;12.68;;;14.70;99.90;;;;;;5094421;28;20023;-74
2022/10/04 09:23:48;;;;;;;26.13;12.98;;;14.80;99.90;;;;;;5109707;28;20020;-76
2022/10/04 09:26:22;;;;;;;24.23;12.07;;;14.90;99.90;;;;;;5110483;28;20429;-72
2022/10/04 09:29:31;;;;;;;19.42;12.00;;;15.00;99.90;;;;;;5103240;28;20024;-72
2022/10/04 09:32:00;;;;;;;19.08;12.90;;;15.20;99.90;;;;;;5101738;28;20411;-72
2022/10/04 09:34:51;;;;;;;22.25;11.98;;;15.40;99.90;;;;;;5113465;28;20028;-72
2022/10/04 09:37:55;;;;;;;22.25;13.13;;;15.60;99.90;;;;;;5102236;28;20020;-72
2022/10/04 09:40:29;;;;;;;20.02;12.15;;;15.70;99.90;;;;;;5056056;28;20368;-73
2022/10/04 09:42:58;;;;;;;22.80;12.35;;;15.70;99.90;;;;;;5112988;28;20047;-73
2022/10/04 09:45:26;;;;;;;21.85;11.48;;;15.60;99.90;;;;;;5113725;28;20048;-72
2022/10/04 09:48:24;;;;;;;19.48;12.15;;;15.60;99.90;;;;;;5113591;28;20031;-72
2022/10/04 09:50:55;;;;;;;19.58;11.65;;;15.60;99.90;;;;;;5103337;28;20043;-73
2022/10/04 09:53:24;;;;;;;22.67;11.57;;;15.60;99.90;;;;;;5094681;28;20023;-72
2022/10/04 09:56:26;;;;;;;20.63;12.32;;;15.80;99.90;;;;;;5113507;28;20035;-72
2022/10/04 09:59:00;;;;;;;21.08;12.18;;;16.00;99.90;;;;;;5111836;28;20062;-73
2022/10/04 10:01:34;;;;;;;24.13;12.07;;;16.20;99.90;;;;;;5094983;28;20455;-72
2022/10/04 10:04:19;;;;;;;21.70;12.10;;;16.40;99.90;;;;;;5112892;28;20040;-73
2022/10/04 10:06:50;;;;;;;19.85;11.55;;;16.50;99.90;;;;;;5111840;28;20398;-73
2022/10/04 10:16:04;;;;;;;18.50;11.45;;;16.70;99.90;;;;;;5099264;28;20165;-75
2022/10/04 10:18:44;;;;;;;19.27;11.00;;;16.80;99.90;;;;;;5112993;28;20542;-75
2022/10/04 10:21:43;;;;;;;17.45;10.57;;;16.90;99.90;;;;;;5113332;28;20023;-72
2022/10/04 10:24:51;;;;;;;21.50;10.57;;;17.00;99.90;;;;;;5112041;28;20030;-72
2022/10/04 10:27:47;;;;;;;18.90;10.27;;;17.10;99.90;;;;;;5104711;28;20032;-74
2022/10/04 10:30:21;;;;;;;16.00;10.23;;;17.20;99.90;;;;;;5106500;28;20035;-75
2022/10/04 10:32:58;;;;;;;23.10;10.10;;;17.20;99.90;;;;;;5090024;28;20382;-74
2022/10/04 10:35:43;;;;;;;13.60;8.70;;;17.10;99.90;;;;;;5094102;28;20472;-73
2022/10/04 10:38:23;;;;;;;18.33;9.60;;;17.10;99.90;;;;;;5111257;28;20518;-73
2022/10/04 10:40:57;;;;;;;15.35;8.85;;;17.10;99.90;;;;;;5112346;28;20491;-72
2022/10/04 10:44:01;;;;;;;16.33;9.23;;;17.10;99.90;;;;;;5112661;28;20494;-73
2022/10/04 10:46:48;;;;;;;17.55;9.55;;;17.20;99.90;;;;;;5099241;28;20048;-73
2022/10/04 10:49:29;;;;;;;17.27;10.57;;;17.30;99.90;;;;;;5102955;28;20035;-73
2022/10/04 10:52:27;;;;;;;17.15;9.93;;;17.50;99.90;;;;;;5112152;28;20027;-73
2022/10/04 10:55:06;;;;;;;19.30;9.07;;;17.60;99.90;;;;;;5098659;28;20038;-72
2022/10/04 10:57:50;;;;;;;15.75;9.10;;;17.70;99.90;;;;;;5090519;28;20405;-73
2022/10/04 11:00:45;;;;;;;19.55;9.05;;;17.90;99.90;;;;;;5108322;28;20028;-74
2022/10/04 11:03:29;;;;;;;13.73;8.43;;;18.00;99.90;;;;;;5091045;28;20024;-74
2022/10/04 11:06:27;;;;;;;19.05;9.65;;;18.20;99.90;;;;;;5107407;28;20056;-73
2022/10/04 11:09:24;;;;;;;15.80;7.95;;;18.30;99.90;;;;;;5111727;28;20132;-72
2022/10/04 11:12:25;;;;;;;19.63;9.30;;;18.20;99.90;;;;;;5111230;28;20024;-72
2022/10/04 11:15:29;;;;;;;15.15;8.25;;;18.10;99.90;;;;;;5091646;28;20035;-72
2022/10/04 11:18:03;;;;;;;16.50;8.90;;;18.00;99.90;;;;;;5101700;28;20409;-73
2022/10/04 11:20:51;;;;;;;16.90;9.50;;;17.90;99.90;;;;;;5111582;28;20043;-72
2022/10/04 11:23:19;;;;;;;14.15;9.68;;;17.80;99.90;;;;;;5111848;28;20035;-72
2022/10/04 11:26:32;;;;;;;18.40;10.23;;;17.70;99.90;;;;;;5111425;28;20020;-73
2022/10/04 11:29:25;;;;;;;17.63;10.90;;;17.70;99.90;;;;;;5016609;28;20522;-72
2022/10/04 11:31:59;;;;;;;17.45;10.65;;;17.70;99.90;;;;;;5008836;28;20124;-73
2022/10/04 11:34:49;;;;;;;15.80;10.17;;;17.70;99.90;;;;;;5008121;28;20522;-73
2022/10/04 11:37:52;;;;;;;17.90;10.20;;;17.80;99.90;;;;;;5008864;28;20033;-72
2022/10/04 11:40:20;;;;;;;19.60;11.23;;;17.70;99.90;;;;;;4949939;28;20027;-72
2022/10/04 11:43:03;;;;;;;22.30;11.35;;;17.70;99.90;;;;;;4949951;28;20043;-73
2022/10/04 11:45:37;;;;;;;19.80;11.05;;;17.70;99.90;;;;;;4938210;28;20083;-73
2022/10/04 11:48:22;;;;;;;18.05;11.40;;;17.60;99.90;;;;;;4944998;28;20050;-72
2022/10/04 11:51:33;;;;;;;17.15;10.43;;;17.70;99.90;;;;;;4940314;28;20050;-72
2022/10/04 11:54:48;;;;;;;20.60;11.18;;;17.80;99.90;;;;;;4938485;28;20086;-73
2022/10/04 11:57:36;;;;;;;18.08;10.90;;;18.00;99.90;;;;;;4937797;28;20028;-74
2022/10/04 12:00:21;;;;;;;17.80;10.50;;;18.00;99.90;;;;;;4950566;28;20277;-73
2022/10/04 12:03:26;;;;;;;18.35;10.43;;;18.10;99.90;;;;;;4989821;28;20037;-73
2022/10/04 12:05:52;;;;;;;24.80;10.23;;;18.10;99.90;;;;;;5048379;28;20036;-73
2022/10/04 12:08:54;;;;;;;18.38;10.35;;;18.20;99.90;;;;;;5049130;28;20065;-73
2022/10/04 12:14:46;;;;;;;17.10;9.20;;;18.20;99.90;;;;;;5088001;28;20399;-73
2022/10/04 12:17:27;;;;;;;15.60;9.32;;;18.30;99.90;;;;;;5110754;28;20020;-73
2022/10/04 12:20:20;;;;;;;17.90;8.90;;;18.30;99.90;;;;;;5111019;28;20459;-73
2022/10/04 12:23:07;;;;;;;15.65;8.52;;;18.30;99.90;;;;;;5098648;28;20023;-74
2022/10/04 12:25:41;;;;;;;16.45;9.18;;;18.40;99.90;;;;;;5108506;28;20528;-73
2022/10/04 12:28:22;;;;;;;19.42;8.90;;;18.50;99.90;;;;;;5098570;28;20094;-72
2022/10/04 12:31:21;;;;;;;20.98;9.45;;;18.50;99.90;;;;;;5110978;28;20042;-72
2022/10/04 12:34:13;;;;;;;13.15;9.02;;;18.50;99.90;;;;;;5103564;28;20020;-73
2022/10/04 12:36:41;;;;;;;15.15;9.95;;;18.60;99.90;;;;;;5098944;28;20043;-73
2022/10/04 12:39:38;;;;;;;19.98;10.45;;;18.60;99.90;;;;;;5091921;28;20050;-73
2022/10/04 12:42:51;;;;;;;21.08;9.85;;;18.60;99.90;;;;;;5107215;28;20392;-73
2022/10/04 12:45:33;;;;;;;15.32;8.63;;;18.80;99.90;;;;;;5027051;28;20547;-75
2022/10/04 12:48:33;;;;;;;17.92;9.85;;;18.90;99.90;;;;;;5024024;28;20041;-75
2022/10/04 12:51:09;;;;;;;16.67;9.77;;;19.00;99.90;;;;;;4968379;28;20035;-73
2022/10/04 12:54:19;;;;;;;23.20;9.80;;;19.00;99.90;;;;;;4968450;28;20083;-72
2022/10/04 12:57:16;;;;;;;15.38;8.65;;;19.00;99.90;;;;;;4929651;29;20056;-73
2022/10/04 13:00:13;;;;;;;18.10;9.57;;;19.20;99.90;;;;;;4929958;29;20542;-76
2022/10/04 13:03:01;;;;;;;17.35;9.13;;;19.30;99.90;;;;;;4930100;29;20031;-75
2022/10/04 13:05:32;;;;;;;17.55;9.35;;;19.40;99.90;;;;;;4932060;29;20123;-74
2022/10/04 13:08:03;;;;;;;16.65;8.88;;;19.50;99.90;;;;;;4933301;29;20035;-75
2022/10/04 13:10:29;;;;;;;18.70;8.23;;;19.50;99.90;;;;;;4933675;29;20056;-75
2022/10/04 13:13:19;;;;;;;14.98;8.25;;;19.50;99.90;;;;;;4934877;29;20121;-75
2022/10/04 13:16:01;;;;;;;20.25;8.05;;;19.60;99.90;;;;;;4942147;29;20034;-75
2022/10/04 13:18:39;;;;;;;14.68;7.47;;;19.60;99.90;;;;;;4934766;29;20042;-75
2022/10/04 13:21:08;;;;;;;15.20;8.02;;;19.60;99.90;;;;;;4957397;28;20042;-75
2022/10/04 13:24:10;;;;;;;16.08;7.88;;;19.70;99.90;;;;;;4969667;28;20093;-75
2022/10/04 13:26:47;;;;;;;15.73;7.85;;;19.80;99.90;;;;;;4998102;28;20030;-75
2022/10/04 13:29:34;;;;;;;14.30;8.10;;;19.90;99.90;;;;;;5026107;28;20144;-75
2022/10/04 13:32:14;;;;;;;12.15;7.35;;;19.90;99.90;;;;;;5104951;28;20495;-77
2022/10/04 13:34:59;;;;;;;13.07;7.22;;;19.90;99.90;;;;;;5101950;28;20019;-78
2022/10/04 13:37:59;;;;;;;13.70;7.28;;;20.00;99.90;;;;;;5092888;28;20027;-76
2022/10/04 13:40:29;;;;;;;15.85;8.18;;;20.00;99.90;;;;;;5096036;28;20109;-76
2022/10/04 13:43:15;;;;;;;12.40;6.95;;;20.00;99.90;;;;;;5102413;28;20050;-77
2022/10/04 13:45:46;;;;;;;12.85;7.72;;;20.00;99.90;;;;;;5104343;28;20054;-76
2022/10/04 13:48:29;;;;;;;15.85;8.10;;;20.00;99.90;;;;;;5104568;28;20054;-77
2022/10/04 13:51:26;;;;;;;13.55;8.18;;;20.00;99.90;;;;;;5102914;28;20031;-76
2022/10/04 13:57:44;;;;;;;15.23;7.85;;;19.90;99.90;;;;;;5112391;28;20047;-74